Main page
METAR-TAF:

METAR-TAF

Airports :

Paganella, Italy

latitude: 46-09N, longitude: 011-02E, elevation: 2125 m

Current weather observation

The report was made 1 hour and 1 minutes ago, at 17:55 UTC
Wind 3 kt from the South
Temperature 13°C
Humidity 62%
Pressure 1023 hPa
Visibility 10 km or more
Few clouds at a height of 2000 ft

METAR: LIVP 251755Z 17003KT 9999 FEW020 13/06 Q1023 RMK SCT SCT070 MON LIB VAL NIL VIS MIN 9999

Time: 20:56 (18:56 UTC)


TAF: missing

Weather observations and forecasts of more than 4000 airports (METAR and TAF reports).

The available stations are represented by yellow and red dots on the map.

Hover mouse over dot to see the name of the station.

Then click to see weather observations and forecasts.

To change the map : click on the green buttons with a black cross to zoom in, on the green button with a dash to zoom out, or on the green arrows for adjacent maps.


METAR-TAF: